Time;durP1;ratioP1;P1;durP2;ratioP2;P2;SDS_P1;SDS_P2;PMS_P1;PMS_P2;Temp;Humidity;BMP_temperature;BMP_pressure;BME280_temperature;BME280_humidity;BME280_pressure;Samples;Min_cycle;Max_cycle;Signal;HPM_P1;HPM_P2
2023/10/12 00:02:48;;;;;;;0.10;0.10;;;;;;;16.77;100.00;98776.91;5093934;28;20276;-57
2023/10/12 00:05:35;;;;;;;0.10;0.10;;;;;;;16.68;100.00;98775.09;5093883;28;20276;-57
2023/10/12 00:08:30;;;;;;;0.20;0.20;;;;;;;16.75;100.00;98770.03;5093551;28;20214;-57
2023/10/12 00:11:20;;;;;;;0.10;0.10;;;;;;;16.78;100.00;98767.88;5092493;28;20199;-58
2023/10/12 00:14:08;;;;;;;0.10;0.10;;;;;;;16.81;100.00;98772.13;5093765;28;20199;-57
2023/10/12 00:16:57;;;;;;;0.10;0.10;;;;;;;16.77;100.00;98774.22;5093548;28;20280;-57
2023/10/12 00:19:44;;;;;;;0.20;0.20;;;;;;;16.63;100.00;98776.53;5093634;28;20634;-57
2023/10/12 00:22:31;;;;;;;0.10;0.10;;;;;;;16.63;100.00;98773.84;5093557;28;20203;-58
2023/10/12 00:25:19;;;;;;;0.10;0.10;;;;;;;16.55;100.00;98767.38;5093310;28;20229;-58
2023/10/12 00:28:07;;;;;;;0.10;0.10;;;;;;;16.48;100.00;98774.28;5092135;28;20292;-57
2023/10/12 00:30:55;;;;;;;0.20;0.20;;;;;;;16.47;100.00;98769.94;5093501;28;20190;-57
2023/10/12 00:33:43;;;;;;;0.20;0.20;;;;;;;16.49;100.00;98775.97;5093371;28;20305;-57
2023/10/12 00:36:36;;;;;;;0.10;0.10;;;;;;;16.36;100.00;98763.94;5105925;28;20669;-57
2023/10/12 00:39:29;;;;;;;0.10;0.10;;;;;;;16.42;100.00;98772.22;5093336;28;20257;-58
2023/10/12 00:42:17;;;;;;;0.10;0.10;;;;;;;16.52;100.00;98769.53;5092064;28;20230;-57
2023/10/12 00:45:14;;;;;;;0.10;0.10;;;;;;;16.37;100.00;98769.13;5093227;28;20262;-57
2023/10/12 00:48:04;;;;;;;0.10;0.10;;;;;;;16.38;100.00;98767.28;5077641;28;20206;-57
2023/10/12 00:50:56;;;;;;;0.10;0.10;;;;;;;16.45;100.00;98771.91;5093116;28;20199;-57
2023/10/12 00:53:55;;;;;;;0.10;0.10;;;;;;;16.44;100.00;98762.22;5077782;28;20198;-57
2023/10/12 00:56:43;;;;;;;0.17;0.17;;;;;;;16.44;100.00;98764.06;5091618;28;20187;-57
2023/10/12 00:59:31;;;;;;;0.10;0.10;;;;;;;16.41;100.00;98764.34;5093109;28;20256;-57
2023/10/12 01:02:23;;;;;;;0.10;0.10;;;;;;;16.29;100.00;98767.16;5093061;28;20283;-57
2023/10/12 01:05:11;;;;;;;0.10;0.10;;;;;;;16.31;100.00;98753.69;5093030;28;20190;-57
2023/10/12 01:08:01;;;;;;;0.10;0.10;;;;;;;16.23;100.00;98753.56;5092936;28;20206;-57
2023/10/12 01:10:48;;;;;;;0.10;0.10;;;;;;;16.16;100.00;98761.28;5092819;28;20199;-57
2023/10/12 01:13:36;;;;;;;0.10;0.10;;;;;;;16.15;100.00;98762.28;5106294;28;20187;-58
2023/10/12 01:16:23;;;;;;;0.10;0.10;;;;;;;16.08;100.00;98765.66;5092982;28;20198;-57
2023/10/12 01:19:20;;;;;;;0.20;0.20;;;;;;;16.06;100.00;98765.81;5092871;28;20290;-57
2023/10/12 01:22:12;;;;;;;0.10;0.10;;;;;;;16.05;100.00;98760.63;5092885;28;20245;-57
2023/10/12 01:25:00;;;;;;;0.10;0.10;;;;;;;15.86;100.00;98756.13;5092938;28;20681;-57
2023/10/12 01:27:49;;;;;;;0.10;0.10;;;;;;;15.87;100.00;98755.16;5076120;28;20199;-57
2023/10/12 01:30:39;;;;;;;0.10;0.10;;;;;;;15.70;100.00;98754.84;5092727;28;20203;-58
2023/10/12 01:33:26;;;;;;;0.20;0.20;;;;;;;15.75;100.00;98751.78;5106085;28;20194;-57
2023/10/12 01:36:13;;;;;;;0.10;0.10;;;;;;;15.90;100.00;98758.38;5092438;28;20240;-57
2023/10/12 01:39:12;;;;;;;0.10;0.10;;;;;;;15.92;100.00;98756.41;5092731;28;20195;-57
2023/10/12 01:41:59;;;;;;;0.10;0.10;;;;;;;15.93;100.00;98750.09;5091312;28;20199;-57
2023/10/12 01:44:47;;;;;;;0.17;0.17;;;;;;;15.82;100.00;98754.72;5106094;28;20313;-57
2023/10/12 01:47:37;;;;;;;0.13;0.13;;;;;;;15.71;100.00;98753.88;5091610;28;20237;-57
2023/10/12 01:50:25;;;;;;;0.10;0.10;;;;;;;15.72;100.00;98754.72;5096214;28;20697;-58
2023/10/12 01:53:24;;;;;;;0.10;0.10;;;;;;;15.88;100.00;98746.97;5081132;28;20261;-57
2023/10/12 01:56:12;;;;;;;0.10;0.10;;;;;;;15.77;100.00;98752.47;5079679;28;20198;-57
2023/10/12 01:59:00;;;;;;;0.10;0.10;;;;;;;15.69;100.00;98761.19;5080860;28;20230;-58
2023/10/12 02:01:53;;;;;;;0.10;0.10;;;;;;;15.65;100.00;98753.59;5096316;28;20198;-57
2023/10/12 02:04:40;;;;;;;0.10;0.10;;;;;;;15.75;100.00;98765.13;5096263;28;20203;-58
2023/10/12 02:07:27;;;;;;;0.10;0.10;;;;;;;15.58;100.00;98769.31;5096056;28;20191;-57
2023/10/12 02:10:14;;;;;;;0.20;0.20;;;;;;;15.59;100.00;98773.66;5080403;28;20256;-57
2023/10/12 02:13:02;;;;;;;0.10;0.10;;;;;;;15.60;100.00;98769.16;5095103;28;20261;-57
2023/10/12 02:15:50;;;;;;;0.10;0.10;;;;;;;15.68;100.00;98747.97;5095872;28;20195;-57
2023/10/12 02:18:37;;;;;;;0.10;0.10;;;;;;;15.80;100.00;98748.66;5080659;28;20673;-57
2023/10/12 02:21:25;;;;;;;0.10;0.10;;;;;;;15.91;100.00;98762.72;5095904;28;20305;-57
2023/10/12 02:24:15;;;;;;;0.10;0.10;;;;;;;15.91;100.00;98764.53;5080333;28;20199;-57
2023/10/12 02:27:04;;;;;;;0.10;0.10;;;;;;;15.98;100.00;98765.66;5094545;28;20195;-57
2023/10/12 02:29:56;;;;;;;0.10;0.10;;;;;;;16.09;100.00;98757.50;5095519;28;20662;-57
2023/10/12 02:32:47;;;;;;;0.10;0.10;;;;;;;16.15;100.00;98775.66;5080421;28;20191;-58
2023/10/12 02:35:37;;;;;;;0.10;0.10;;;;;;;16.25;100.00;98770.28;5095697;28;20306;-58
2023/10/12 02:38:28;;;;;;;0.10;0.10;;;;;;;16.36;100.00;98767.44;5095353;28;20235;-57
2023/10/12 02:41:15;;;;;;;0.10;0.10;;;;;;;16.25;100.00;98768.44;5107647;28;20309;-57
2023/10/12 02:44:11;;;;;;;0.10;0.10;;;;;;;16.16;100.00;98774.66;5095545;28;20195;-58
2023/10/12 02:47:12;;;;;;;0.10;0.10;;;;;;;16.03;100.00;98771.44;5095271;28;20202;-57
2023/10/12 02:50:14;;;;;;;0.10;0.10;;;;;;;16.09;100.00;98783.38;5095178;28;20300;-57
2023/10/12 02:53:08;;;;;;;0.10;0.10;;;;;;;16.15;100.00;98783.66;5079989;28;20294;-57
2023/10/12 02:55:58;;;;;;;0.10;0.10;;;;;;;16.21;100.00;98777.75;5093903;28;20206;-57
2023/10/12 02:58:45;;;;;;;0.10;0.10;;;;;;;16.27;100.00;98787.00;5079839;28;20266;-57
2023/10/12 03:01:32;;;;;;;0.10;0.10;;;;;;;16.28;100.00;98786.88;5094473;28;20669;-58
2023/10/12 03:04:20;;;;;;;0.10;0.10;;;;;;;16.35;100.00;98780.97;5095060;28;20225;-57
2023/10/12 03:07:17;;;;;;;0.10;0.10;;;;;;;16.42;100.00;98788.25;5079720;28;20289;-57
2023/10/12 03:10:06;;;;;;;0.10;0.10;;;;;;;16.47;100.00;98790.50;5093658;28;20236;-57
2023/10/12 03:12:55;;;;;;;0.10;0.10;;;;;;;16.56;100.00;98801.16;5093531;28;20190;-57
2023/10/12 03:15:43;;;;;;;0.10;0.10;;;;;;;16.58;100.00;98812.53;5079531;28;20194;-57
2023/10/12 03:18:32;;;;;;;0.10;0.10;;;;;;;16.53;100.00;98822.00;5094584;28;20194;-58
2023/10/12 03:21:23;;;;;;;0.10;0.10;;;;;;;16.29;100.00;98827.78;5094853;28;20187;-57
2023/10/12 03:24:11;;;;;;;0.10;0.10;;;;;;;16.27;100.00;98832.44;5094748;28;20233;-58
2023/10/12 03:27:11;;;;;;;0.10;0.10;;;;;;;16.33;100.00;98829.22;5093332;28;20195;-57
2023/10/12 03:30:07;;;;;;;0.10;0.10;;;;;;;16.30;100.00;98837.50;5094440;28;20238;-58
2023/10/12 03:32:56;;;;;;;0.10;0.10;;;;;;;16.17;100.00;98832.44;5094512;28;20195;-57
2023/10/12 03:35:52;;;;;;;0.10;0.10;;;;;;;16.14;100.00;98830.06;5094553;28;20202;-57
2023/10/12 03:38:43;;;;;;;0.10;0.10;;;;;;;16.21;100.00;98844.56;5094466;28;20203;-57
2023/10/12 03:44:49;;;;;;;0.10;0.10;;;;;;;16.18;100.00;98847.50;5094339;28;20253;-57
2023/10/12 03:48:03;;;;;;;0.10;0.10;;;;;;;15.84;100.00;98860.44;5094057;28;20202;-57
2023/10/12 03:54:11;;;;;;;0.10;0.10;;;;;;;15.98;100.00;98848.50;5086379;28;20198;-57
2023/10/12 03:57:19;;;;;;;0.10;0.10;;;;;;;15.93;100.00;98856.94;5092790;28;20252;-58
2023/10/12 04:03:18;;;;;;;0.10;0.10;;;;;;;15.87;100.00;98870.84;5093899;28;20313;-57
2023/10/12 04:06:14;;;;;;;0.10;0.10;;;;;;;15.94;100.00;98866.63;5093879;28;20211;-58
2023/10/12 04:09:14;;;;;;;0.10;0.10;;;;;;;15.95;100.00;98871.00;5093881;28;20191;-58
2023/10/12 04:12:16;;;;;;;0.10;0.10;;;;;;;15.91;100.00;98868.72;5092518;28;20209;-58
2023/10/12 04:15:08;;;;;;;0.10;0.10;;;;;;;15.97;100.00;98866.34;5093825;28;20672;-57
2023/10/12 04:17:59;;;;;;;0.10;0.10;;;;;;;16.18;100.00;98870.72;5093765;28;20317;-58
2023/10/12 04:20:46;;;;;;;0.10;0.10;;;;;;;16.12;100.00;98873.97;5093701;28;20310;-58
2023/10/12 04:23:44;;;;;;;0.10;0.10;;;;;;;15.86;100.00;98895.00;5093688;28;20210;-58
2023/10/12 04:26:38;;;;;;;0.10;0.10;;;;;;;15.98;100.00;98905.44;5092345;28;20246;-57
2023/10/12 04:29:30;;;;;;;0.10;0.10;;;;;;;16.05;100.00;98915.56;5093389;28;20202;-58
2023/10/12 04:32:36;;;;;;;0.10;0.10;;;;;;;16.18;100.00;98908.13;5093421;28;20194;-58
2023/10/12 04:35:41;;;;;;;0.10;0.10;;;;;;;16.43;100.00;98901.38;5093310;28;20202;-57
2023/10/12 04:38:46;;;;;;;0.10;0.10;;;;;;;16.57;100.00;98898.25;5092947;28;20222;-58
2023/10/12 04:41:46;;;;;;;0.10;0.10;;;;;;;16.71;100.00;98891.69;5091857;28;20263;-58
2023/10/12 04:44:40;;;;;;;0.10;0.10;;;;;;;16.78;100.00;98888.25;5093012;28;20206;-58
2023/10/12 04:47:29;;;;;;;0.10;0.10;;;;;;;16.94;100.00;98884.16;5093335;28;20190;-57
2023/10/12 04:50:27;;;;;;;0.10;0.10;;;;;;;16.97;100.00;98884.69;5092903;28;20218;-57
2023/10/12 04:53:14;;;;;;;0.10;0.10;;;;;;;17.04;100.00;98901.03;5093176;28;20207;-57
2023/10/12 04:56:09;;;;;;;0.10;0.10;;;;;;;17.01;100.00;98901.31;5091786;28;20433;-57
2023/10/12 04:58:57;;;;;;;0.00;0.00;;;;;;;17.02;100.00;98890.47;5093090;28;20190;-58
2023/10/12 05:02:06;;;;;;;0.10;0.10;;;;;;;17.07;100.00;98892.69;5093089;28;20187;-58
2023/10/12 05:07:54;;;;;;;0.10;0.10;;;;;;;17.28;100.00;98865.72;5093076;28;20199;-57
2023/10/12 05:10:47;;;;;;;0.10;0.10;;;;;;;17.32;100.00;98875.13;5092181;28;20313;-57
2023/10/12 05:13:34;;;;;;;0.10;0.10;;;;;;;17.29;100.00;98857.53;5092867;28;20211;-58
2023/10/12 05:16:26;;;;;;;0.10;0.10;;;;;;;17.28;100.00;98805.00;5092952;28;20700;-57
2023/10/12 05:19:13;;;;;;;0.10;0.10;;;;;;;17.09;100.00;98771.16;5092854;28;20214;-58
2023/10/12 05:22:00;;;;;;;0.10;0.10;;;;;;;17.15;100.00;98786.59;5092894;28;20190;-58
2023/10/12 05:24:47;;;;;;;0.10;0.10;;;;;;;17.03;100.00;98773.56;5096639;28;20262;-58
2023/10/12 05:27:39;;;;;;;0.10;0.10;;;;;;;16.70;100.00;98746.41;5095471;28;20261;-57
2023/10/12 05:30:27;;;;;;;0.10;0.10;;;;;;;16.66;100.00;98773.53;5096724;28;20213;-57
2023/10/12 05:33:38;;;;;;;0.10;0.10;;;;;;;16.69;100.00;98795.50;5096849;28;20195;-58
2023/10/12 05:36:28;;;;;;;0.10;0.10;;;;;;;16.64;100.00;98831.69;5096598;28;20198;-58
2023/10/12 05:39:16;;;;;;;0.10;0.10;;;;;;;16.58;100.00;98839.28;5096684;28;20195;-57
2023/10/12 05:42:08;;;;;;;0.10;0.10;;;;;;;16.38;100.00;98874.22;5095359;28;20305;-58
2023/10/12 05:45:17;;;;;;;0.10;0.10;;;;;;;16.51;100.00;98902.38;5096744;28;20198;-57
2023/10/12 05:48:04;;;;;;;0.10;0.10;;;;;;;16.51;100.00;98944.31;5096512;28;20199;-58
2023/10/12 05:50:53;;;;;;;0.10;0.10;;;;;;;16.53;100.00;98947.69;5096541;28;20218;-58
2023/10/12 05:53:41;;;;;;;0.10;0.10;;;;;;;16.49;100.00;98948.91;5096473;28;20215;-58
2023/10/12 05:56:28;;;;;;;0.10;0.10;;;;;;;16.54;100.00;98952.03;5095127;28;20238;-57
2023/10/12 05:59:14;;;;;;;0.10;0.10;;;;;;;16.74;100.00;98952.91;5096339;28;20294;-57
2023/10/12 06:02:01;;;;;;;0.10;0.10;;;;;;;16.74;100.00;98948.38;5096308;28;20206;-57
2023/10/12 06:04:48;;;;;;;0.10;0.10;;;;;;;16.75;100.00;98965.28;5096346;28;20480;-57
2023/10/12 06:07:37;;;;;;;0.10;0.10;;;;;;;16.75;100.00;98984.84;5096240;28;20563;-57
2023/10/12 06:10:27;;;;;;;0.10;0.10;;;;;;;16.73;100.00;98975.28;5096175;28;20194;-57
2023/10/12 06:13:15;;;;;;;0.10;0.10;;;;;;;16.67;100.00;98978.47;5096183;28;20366;-57
2023/10/12 06:16:02;;;;;;;0.10;0.10;;;;;;;16.83;100.00;98970.78;5096181;28;20186;-57
2023/10/12 06:18:49;;;;;;;0.10;0.10;;;;;;;16.74;100.00;98972.47;5096176;28;20194;-57
2023/10/12 06:21:42;;;;;;;0.10;0.10;;;;;;;16.74;100.00;98961.75;5095980;28;20649;-57
2023/10/12 06:24:34;;;;;;;0.10;0.10;;;;;;;16.83;100.00;98970.78;5095664;28;20186;-57
2023/10/12 06:27:25;;;;;;;0.10;0.10;;;;;;;16.70;100.00;98979.09;5094614;28;20700;-57
2023/10/12 06:30:18;;;;;;;0.10;0.10;;;;;;;16.60;100.00;98979.06;5095733;28;20226;-57
2023/10/12 06:33:07;;;;;;;0.10;0.10;;;;;;;16.31;100.00;98991.56;5095655;28;20191;-57
2023/10/12 06:35:59;;;;;;;0.10;0.10;;;;;;;16.34;100.00;98999.31;5094432;28;20199;-57
2023/10/12 06:39:02;;;;;;;0.10;0.10;;;;;;;16.26;100.00;98993.78;5095352;28;20581;-57
2023/10/12 06:41:58;;;;;;;0.13;0.13;;;;;;;16.34;100.00;98996.63;5094152;28;20203;-57
2023/10/12 06:44:50;;;;;;;0.10;0.10;;;;;;;16.49;100.00;99013.94;5095322;28;20270;-57
2023/10/12 06:47:41;;;;;;;0.10;0.10;;;;;;;16.51;100.00;99014.66;5095414;28;20191;-57
2023/10/12 06:50:28;;;;;;;0.10;0.10;;;;;;;16.52;100.00;99027.03;5095260;28;20261;-57
2023/10/12 06:53:15;;;;;;;0.10;0.10;;;;;;;16.57;100.00;99021.25;5095115;28;20260;-57
2023/10/12 06:56:16;;;;;;;0.10;0.10;;;;;;;16.52;100.00;99010.16;5093826;28;20253;-57
2023/10/12 06:59:22;;;;;;;0.10;0.10;;;;;;;16.65;100.00;99021.41;5095159;28;20260;-57
2023/10/12 07:02:11;;;;;;;0.10;0.10;;;;;;;16.62;100.00;99036.91;5095066;28;20195;-57
2023/10/12 07:04:58;;;;;;;0.10;0.10;;;;;;;16.70;100.00;99037.94;5095130;28;20199;-57
2023/10/12 07:07:51;;;;;;;0.07;0.07;;;;;;;16.74;100.00;99042.00;5094881;28;20195;-57
2023/10/12 07:10:50;;;;;;;0.10;0.10;;;;;;;16.77;100.00;99054.25;5094436;28;20195;-57
2023/10/12 07:13:39;;;;;;;0.10;0.10;;;;;;;16.79;100.00;99061.16;5094927;28;20210;-57
2023/10/12 07:16:31;;;;;;;0.10;0.10;;;;;;;16.86;100.00;99066.78;5094944;28;20274;-57
2023/10/12 07:19:22;;;;;;;0.10;0.10;;;;;;;16.78;100.00;99040.72;5094836;28;20550;-57
2023/10/12 07:22:15;;;;;;;0.10;0.10;;;;;;;16.68;100.00;99039.00;5094923;28;20281;-57
2023/10/12 07:25:04;;;;;;;0.10;0.10;;;;;;;16.71;100.00;99039.63;5094677;28;20214;-57
2023/10/12 07:27:58;;;;;;;0.10;0.10;;;;;;;16.90;100.00;99035.25;5093260;28;20209;-57
2023/10/12 07:33:59;;;;;;;0.10;0.10;;;;;;;16.72;100.00;99005.69;5094434;28;20195;-57
2023/10/12 07:36:53;;;;;;;0.10;0.10;;;;;;;16.64;100.00;98994.81;5094364;28;20217;-57
2023/10/12 07:39:42;;;;;;;0.10;0.10;;;;;;;16.64;100.00;98994.81;5094527;28;20323;-57
2023/10/12 07:42:31;;;;;;;0.10;0.10;;;;;;;16.59;100.00;98998.75;5092979;28;20602;-58
2023/10/12 07:45:19;;;;;;;0.10;0.10;;;;;;;16.25;100.00;98995.63;5094207;28;20438;-57
2023/10/12 07:48:09;;;;;;;0.10;0.10;;;;;;;16.05;100.00;98999.25;5094264;28;20271;-58
2023/10/12 07:51:15;;;;;;;0.10;0.10;;;;;;;16.11;100.00;99013.88;5094158;28;20195;-58
2023/10/12 07:54:09;;;;;;;0.10;0.10;;;;;;;16.07;100.00;99031.16;5094351;28;20229;-58
2023/10/12 07:56:56;;;;;;;0.10;0.10;;;;;;;16.19;100.00;99048.78;5092746;28;20194;-58
2023/10/12 07:59:54;;;;;;;0.10;0.10;;;;;;;16.28;100.00;99053.31;5093662;28;20203;-58
2023/10/12 08:08:50;;;;;;;0.10;0.10;;;;;;;16.41;100.00;99080.66;5093824;28;20201;-58
2023/10/12 08:11:39;;;;;;;0.10;0.10;;;;;;;16.36;100.00;99084.69;5092087;28;20210;-59
2023/10/12 08:14:41;;;;;;;0.10;0.10;;;;;;;16.29;100.00;99092.41;5093724;28;20234;-58
2023/10/12 08:17:33;;;;;;;0.10;0.10;;;;;;;16.17;100.00;99082.81;5090258;28;20312;-58
2023/10/12 08:23:37;;;;;;;0.10;0.10;;;;;;;16.12;100.00;99101.09;5065286;28;20230;-58
2023/10/12 08:26:47;;;;;;;0.10;0.10;;;;;;;15.89;100.00;99103.06;5090629;28;20241;-58
2023/10/12 08:32:57;;;;;;;0.10;0.10;;;;;;;16.08;100.00;99113.84;5067107;28;20296;-58
2023/10/12 08:38:53;;;;;;;0.10;0.10;;;;;;;16.21;100.00;99130.53;5092577;28;20693;-58
2023/10/12 08:41:57;;;;;;;0.10;0.10;;;;;;;16.30;100.00;99131.50;5090857;28;20685;-58
2023/10/12 08:44:44;;;;;;;0.10;0.10;;;;;;;16.37;100.00;99137.19;5095022;28;20191;-58
2023/10/12 08:47:44;;;;;;;0.10;0.10;;;;;;;16.31;100.00;99131.41;5092140;28;20194;-58
2023/10/12 08:50:49;;;;;;;0.10;0.10;;;;;;;16.03;100.00;99122.28;5092511;28;20329;-58
2023/10/12 08:53:41;;;;;;;0.10;0.10;;;;;;;16.15;100.00;99123.03;5092168;28;20727;-58
2023/10/12 08:56:32;;;;;;;0.10;0.10;;;;;;;16.19;100.00;99111.09;5090436;28;20211;-58
2023/10/12 08:59:21;;;;;;;0.10;0.10;;;;;;;16.13;100.00;99105.44;5091930;28;20195;-58
2023/10/12 09:02:19;;;;;;;0.10;0.10;;;;;;;16.32;100.00;99121.56;5091961;28;20227;-58
2023/10/12 09:05:10;;;;;;;0.10;0.10;;;;;;;16.44;100.00;99123.13;5092891;28;20203;-58
2023/10/12 09:08:24;;;;;;;0.10;0.10;;;;;;;16.44;100.00;99123.13;5092992;28;20201;-58
2023/10/12 09:11:17;;;;;;;0.10;0.10;;;;;;;16.50;100.00;99137.78;5091627;28;20187;-58
2023/10/12 09:14:11;;;;;;;0.10;0.10;;;;;;;16.37;100.00;99135.34;5092912;28;20191;-58
2023/10/12 09:17:04;;;;;;;0.10;0.10;;;;;;;16.28;100.00;99141.50;5093060;28;20198;-59
2023/10/12 09:19:51;;;;;;;0.10;0.10;;;;;;;16.46;100.00;99152.41;5092918;28;20191;-58
2023/10/12 09:22:40;;;;;;;0.10;0.10;;;;;;;16.44;100.00;99141.00;5092873;28;20190;-58
2023/10/12 09:25:59;;;;;;;0.10;0.10;;;;;;;16.29;100.00;99136.03;5092674;28;20284;-58
2023/10/12 09:29:07;;;;;;;0.10;0.10;;;;;;;16.09;100.00;99130.72;5092344;28;20199;-58
2023/10/12 09:35:10;;;;;;;0.10;0.10;;;;;;;16.13;100.00;99143.72;5131143;27;20538;-59
2023/10/12 09:37:57;;;;;;;0.10;0.10;;;;;;;16.36;100.00;99144.34;5131090;27;20202;-59
2023/10/12 09:40:52;;;;;;;0.10;0.10;;;;;;;16.20;100.00;99131.47;5129695;27;20201;-59
2023/10/12 09:43:40;;;;;;;0.10;0.10;;;;;;;16.09;100.00;99131.56;5131108;28;20214;-59
2023/10/12 09:46:28;;;;;;;0.10;0.10;;;;;;;16.34;100.00;99135.63;5129867;28;20660;-58
2023/10/12 09:49:21;;;;;;;0.10;0.10;;;;;;;16.43;100.00;99129.47;5130812;28;20376;-58
2023/10/12 09:52:13;;;;;;;0.10;0.10;;;;;;;16.48;100.00;99124.53;5131133;27;20189;-58
2023/10/12 09:55:13;;;;;;;0.10;0.10;;;;;;;16.69;100.00;99129.81;5130530;28;20201;-58
2023/10/12 09:58:14;;;;;;;0.10;0.10;;;;;;;16.82;100.00;99118.91;5130617;27;20644;-58
2023/10/12 10:01:07;;;;;;;0.10;0.10;;;;;;;16.74;100.00;99119.56;5130683;27;20202;-58
2023/10/12 10:04:06;;;;;;;0.10;0.10;;;;;;;16.76;100.00;99109.56;5130844;27;20190;-58
2023/10/12 10:07:18;;;;;;;0.20;0.20;;;;;;;16.84;100.00;99107.06;5129783;27;20668;-58
2023/10/12 10:10:16;;;;;;;0.10;0.10;;;;;;;16.70;100.00;99109.31;5130714;28;20193;-58
2023/10/12 10:13:08;;;;;;;0.10;0.10;;;;;;;16.62;100.00;99112.63;5130306;27;20287;-58
2023/10/12 10:15:56;;;;;;;0.10;0.10;;;;;;;16.62;100.00;99117.13;5130596;28;20189;-58
2023/10/12 10:18:49;;;;;;;0.10;0.10;;;;;;;16.88;100.00;99112.97;5130592;27;20185;-58
2023/10/12 10:21:38;;;;;;;0.10;0.10;;;;;;;16.99;100.00;99112.03;5130533;27;20197;-58
2023/10/12 10:24:26;;;;;;;0.10;0.10;;;;;;;16.92;100.00;99119.75;5130418;28;20198;-58
2023/10/12 10:27:14;;;;;;;0.10;0.10;;;;;;;17.07;100.00;99125.53;5129164;28;20365;-58
2023/10/12 10:30:23;;;;;;;0.10;0.10;;;;;;;17.27;100.00;99113.81;5130277;27;20193;-58
2023/10/12 10:33:12;;;;;;;0.10;0.10;;;;;;;17.60;100.00;99109.84;5130067;27;20228;-58
2023/10/12 10:36:10;;;;;;;0.10;0.10;;;;;;;17.60;100.00;99109.84;5130204;27;20231;-58
2023/10/12 10:38:57;;;;;;;0.10;0.10;;;;;;;17.64;100.00;99118.44;5130164;28;20190;-58
2023/10/12 10:42:00;;;;;;;0.10;0.10;;;;;;;17.65;100.00;99128.16;5128925;27;20202;-58
2023/10/12 10:44:52;;;;;;;0.10;0.10;;;;;;;17.66;100.00;99125.38;5124518;28;20189;-58
2023/10/12 10:47:46;;;;;;;0.10;0.10;;;;;;;17.68;100.00;99122.53;5116311;28;20194;-58
2023/10/12 10:50:56;;;;;;;0.10;0.10;;;;;;;17.43;100.00;99107.91;5116127;28;20190;-58
2023/10/12 10:53:46;;;;;;;0.10;0.10;;;;;;;17.36;100.00;99106.78;5116015;28;20214;-58
2023/10/12 10:56:35;;;;;;;0.10;0.10;;;;;;;17.36;100.00;99098.75;5114829;28;20194;-58
2023/10/12 10:59:24;;;;;;;0.10;0.10;;;;;;;17.42;100.00;99092.81;5115566;28;20305;-58
2023/10/12 11:02:11;;;;;;;0.10;0.10;;;;;;;17.48;100.00;99081.56;5116110;28;20245;-58
2023/10/12 11:05:01;;;;;;;0.10;0.10;;;;;;;17.64;100.00;99068.38;5115860;28;20224;-58
2023/10/12 11:07:51;;;;;;;0.10;0.10;;;;;;;17.56;100.00;99064.75;5115813;28;20680;-58
2023/10/12 11:11:14;;;;;;;0.10;0.10;;;;;;;17.48;100.00;99075.34;5114519;28;20292;-58
2023/10/12 11:13:44;;;;;;;0.10;0.10;;;;;;;17.52;100.00;99063.34;5113060;28;20301;-58
2023/10/12 11:16:34;;;;;;;0.10;0.10;;;;;;;17.44;100.00;99075.63;5114703;28;20198;-58
2023/10/12 11:19:23;;;;;;;0.10;0.10;;;;;;;17.61;100.00;99082.06;5114732;28;20205;-58
2023/10/12 11:22:14;;;;;;;0.10;0.10;;;;;;;17.59;100.00;99076.03;5114874;28;20198;-58
2023/10/12 11:25:01;;;;;;;0.10;0.10;;;;;;;17.69;100.00;99081.34;5115580;28;20186;-58
2023/10/12 11:27:51;;;;;;;0.10;0.10;;;;;;;17.87;100.00;99085.00;5114069;28;20189;-58
2023/10/12 11:30:42;;;;;;;0.10;0.10;;;;;;;17.94;100.00;99067.31;5115217;28;20224;-58
2023/10/12 11:33:30;;;;;;;0.10;0.10;;;;;;;18.21;100.00;99057.63;5114951;28;20254;-58
2023/10/12 11:36:23;;;;;;;0.10;0.10;;;;;;;18.31;100.00;99063.78;5115119;28;20199;-59
2023/10/12 11:39:16;;;;;;;0.10;0.10;;;;;;;18.41;100.00;99071.75;5115110;28;20182;-59
2023/10/12 11:42:04;;;;;;;0.10;0.10;;;;;;;18.23;100.00;99067.19;5114011;28;20240;-58
2023/10/12 11:44:52;;;;;;;0.10;0.10;;;;;;;18.86;100.00;99077.16;5115202;28;20276;-59
2023/10/12 11:47:39;;;;;;;0.10;0.10;;;;;;;18.69;100.00;99069.94;5115074;28;20228;-59
2023/10/12 11:50:34;;;;;;;0.10;0.10;;;;;;;18.72;100.00;99066.94;5115052;28;20197;-59
2023/10/12 11:53:21;;;;;;;0.10;0.10;;;;;;;18.98;100.00;99056.28;5115051;28;20550;-59
2023/10/12 11:56:13;;;;;;;0.10;0.10;;;;;;;18.83;100.00;99043.41;5112937;28;20199;-58
2023/10/12 11:59:00;;;;;;;0.10;0.10;;;;;;;18.99;100.00;99039.19;5114796;28;20206;-58
2023/10/12 12:01:51;;;;;;;0.10;0.10;;;;;;;18.67;100.00;99020.94;5114720;28;20217;-58
2023/10/12 12:04:40;;;;;;;0.10;0.10;;;;;;;19.03;100.00;99019.09;5114769;28;20198;-58
2023/10/12 12:07:40;;;;;;;0.10;0.10;;;;;;;19.42;100.00;99000.75;5114714;28;20201;-58
2023/10/12 12:10:37;;;;;;;0.10;0.10;;;;;;;19.56;100.00;99005.56;5114364;28;20217;-58
2023/10/12 12:13:24;;;;;;;0.10;0.10;;;;;;;19.65;100.00;98991.16;5114603;28;20189;-59
2023/10/12 12:16:11;;;;;;;0.10;0.10;;;;;;;19.63;100.00;98989.66;5114562;28;20186;-59
2023/10/12 12:18:58;;;;;;;0.10;0.10;;;;;;;18.98;100.00;98994.53;5114522;28;20206;-58
2023/10/12 12:21:46;;;;;;;0.10;0.10;;;;;;;19.23;100.00;99000.94;5114520;28;20632;-59
2023/10/12 12:24:35;;;;;;;0.10;0.10;;;;;;;19.34;100.00;99003.38;5114315;28;20669;-58
2023/10/12 12:27:38;;;;;;;0.10;0.10;;;;;;;19.26;100.00;98993.41;5112961;28;20264;-58
2023/10/12 12:30:28;;;;;;;0.10;0.10;;;;;;;19.13;100.00;98991.16;5114241;28;20194;-58
2023/10/12 12:33:41;;;;;;;0.10;0.10;;;;;;;18.97;100.00;98982.13;5114028;28;20249;-58
2023/10/12 12:36:30;;;;;;;0.10;0.10;;;;;;;18.93;100.00;98983.44;5113952;28;20190;-58
2023/10/12 12:39:21;;;;;;;0.10;0.10;;;;;;;19.24;100.00;98971.25;5114169;28;20190;-58
2023/10/12 12:42:10;;;;;;;0.10;0.10;;;;;;;19.91;100.00;98977.69;5112820;28;20189;-58
2023/10/12 12:44:59;;;;;;;0.10;0.10;;;;;;;20.51;100.00;98971.31;5113936;28;20178;-58
2023/10/12 12:47:45;;;;;;;0.10;0.10;;;;;;;19.87;100.00;98964.72;5113846;28;20198;-58
2023/10/12 12:50:32;;;;;;;0.10;0.10;;;;;;;20.84;100.00;98964.09;5113924;28;20202;-58
2023/10/12 12:53:20;;;;;;;0.10;0.10;;;;;;;21.02;100.00;98956.69;5113594;28;20259;-58
2023/10/12 12:56:10;;;;;;;0.17;0.17;;;;;;;21.51;100.00;98955.78;5112111;28;20252;-58
2023/10/12 12:59:04;;;;;;;0.10;0.10;;;;;;;20.85;100.00;98945.09;5113571;28;20190;-58
2023/10/12 13:01:50;;;;;;;0.00;0.00;;;;;;;20.51;100.00;98939.88;5113801;28;20190;-58
2023/10/12 13:04:38;;;;;;;0.10;0.10;;;;;;;19.96;100.00;98939.53;5113253;28;20237;-58
2023/10/12 13:07:25;;;;;;;0.10;0.10;;;;;;;19.89;100.00;98934.00;5113107;28;20198;-58
2023/10/12 13:10:12;;;;;;;0.10;0.10;;;;;;;20.28;100.00;98946.88;5113470;28;20194;-58
2023/10/12 13:12:59;;;;;;;0.10;0.10;;;;;;;20.50;100.00;98935.50;5112821;28;20201;-58
2023/10/12 13:15:48;;;;;;;0.10;0.10;;;;;;;20.74;100.00;98928.41;5113118;28;20302;-58
2023/10/12 13:18:34;;;;;;;0.10;0.10;;;;;;;21.61;100.00;98927.59;5113410;28;20213;-58
2023/10/12 13:21:22;;;;;;;0.10;0.10;;;;;;;21.70;100.00;98931.94;5113039;28;20264;-58
2023/10/12 13:24:12;;;;;;;0.10;0.10;;;;;;;21.55;100.00;98936.41;5113349;28;20252;-58
2023/10/12 13:26:58;;;;;;;0.10;0.10;;;;;;;20.81;100.00;98940.22;5111934;28;20316;-58
2023/10/12 13:29:48;;;;;;;0.10;0.10;;;;;;;20.17;100.00;98939.09;5112657;28;20193;-58
2023/10/12 13:32:36;;;;;;;0.10;0.10;;;;;;;20.37;100.00;98945.88;5113355;28;20186;-57
2023/10/12 13:35:41;;;;;;;0.10;0.10;;;;;;;20.01;100.00;98942.59;5112207;28;20229;-58
2023/10/12 13:38:31;;;;;;;0.10;0.10;;;;;;;19.38;100.00;98945.63;5113043;28;20198;-58
2023/10/12 13:41:20;;;;;;;0.10;0.10;;;;;;;19.56;100.00;98942.91;5111005;28;20270;-58
2023/10/12 13:44:07;;;;;;;0.10;0.10;;;;;;;19.15;100.00;98951.56;5113106;28;20198;-58
2023/10/12 13:46:54;;;;;;;0.10;0.10;;;;;;;18.79;100.00;98948.09;5112796;28;20292;-58
2023/10/12 13:49:42;;;;;;;0.10;0.10;;;;;;;18.94;100.00;98955.59;5113112;28;20240;-58
2023/10/12 13:52:29;;;;;;;0.10;0.10;;;;;;;18.98;100.00;98956.97;5111812;28;20202;-58
2023/10/12 13:55:16;;;;;;;0.10;0.10;;;;;;;18.66;100.00;98963.75;5112786;28;20210;-58